sensor_id;sensor_type;location;lat;lon;timestamp;temperature;humidity
47520;DHT22;33252;48.122;11.538;2022-08-21T00:02:23;16.40;99.90
47520;DHT22;33252;48.122;11.538;2022-08-21T00:04:49;16.40;99.90
47520;DHT22;33252;48.122;11.538;2022-08-21T00:07:16;16.40;99.90
47520;DHT22;33252;48.122;11.538;2022-08-21T00:09:42;16.40;99.90
47520;DHT22;33252;48.122;11.538;2022-08-21T00:12:08;16.40;99.90
47520;DHT22;33252;48.122;11.538;2022-08-21T00:14:34;16.40;99.90
47520;DHT22;33252;48.122;11.538;2022-08-21T00:17:00;16.40;99.90
47520;DHT22;33252;48.122;11.538;2022-08-21T00:19:27;16.30;99.90
47520;DHT22;33252;48.122;11.538;2022-08-21T00:21:54;16.30;99.90
47520;DHT22;33252;48.122;11.538;2022-08-21T00:24:21;16.40;99.90
47520;DHT22;33252;48.122;11.538;2022-08-21T00:26:48;16.30;99.90
47520;DHT22;33252;48.122;11.538;2022-08-21T00:29:14;16.20;99.90
47520;DHT22;33252;48.122;11.538;2022-08-21T00:31:41;16.20;99.90
47520;DHT22;33252;48.122;11.538;2022-08-21T00:34:08;16.30;99.90
47520;DHT22;33252;48.122;11.538;2022-08-21T00:36:35;16.20;99.90
47520;DHT22;33252;48.122;11.538;2022-08-21T00:39:01;16.20;99.90
47520;DHT22;33252;48.122;11.538;2022-08-21T00:41:27;16.20;99.90
47520;DHT22;33252;48.122;11.538;2022-08-21T00:43:54;16.20;99.90
47520;DHT22;33252;48.122;11.538;2022-08-21T00:46:20;16.20;99.90
47520;DHT22;33252;48.122;11.538;2022-08-21T00:48:46;16.10;99.90
47520;DHT22;33252;48.122;11.538;2022-08-21T00:51:19;16.20;99.90
47520;DHT22;33252;48.122;11.538;2022-08-21T00:53:50;16.10;99.90
47520;DHT22;33252;48.122;11.538;2022-08-21T00:56:19;16.10;99.90
47520;DHT22;33252;48.122;11.538;2022-08-21T00:58:46;16.10;99.90
47520;DHT22;33252;48.122;11.538;2022-08-21T01:01:13;16.00;99.90
47520;DHT22;33252;48.122;11.538;2022-08-21T01:03:38;16.00;99.90
47520;DHT22;33252;48.122;11.538;2022-08-21T01:06:06;16.00;99.90
47520;DHT22;33252;48.122;11.538;2022-08-21T01:08:32;16.10;99.90
47520;DHT22;33252;48.122;11.538;2022-08-21T01:10:59;16.00;99.90
47520;DHT22;33252;48.122;11.538;2022-08-21T01:13:26;16.00;99.90
47520;DHT22;33252;48.122;11.538;2022-08-21T01:15:54;16.00;99.90
47520;DHT22;33252;48.122;11.538;2022-08-21T01:18:22;15.90;99.90
47520;DHT22;33252;48.122;11.538;2022-08-21T01:23:26;15.90;99.90
47520;DHT22;33252;48.122;11.538;2022-08-21T01:25:52;15.90;99.90
47520;DHT22;33252;48.122;11.538;2022-08-21T01:28:19;15.90;99.90
47520;DHT22;33252;48.122;11.538;2022-08-21T01:30:46;15.90;99.90
47520;DHT22;33252;48.122;11.538;2022-08-21T01:33:12;15.80;99.90
47520;DHT22;33252;48.122;11.538;2022-08-21T01:35:38;15.80;99.90
47520;DHT22;33252;48.122;11.538;2022-08-21T01:38:04;15.80;99.90
47520;DHT22;33252;48.122;11.538;2022-08-21T01:40:30;15.80;99.90
47520;DHT22;33252;48.122;11.538;2022-08-21T01:42:56;15.80;99.90
47520;DHT22;33252;48.122;11.538;2022-08-21T01:45:21;15.80;99.90
47520;DHT22;33252;48.122;11.538;2022-08-21T01:47:47;15.80;99.90
47520;DHT22;33252;48.122;11.538;2022-08-21T01:50:17;15.80;99.90
47520;DHT22;33252;48.122;11.538;2022-08-21T01:52:43;15.80;99.90
47520;DHT22;33252;48.122;11.538;2022-08-21T01:55:10;15.80;99.90
47520;DHT22;33252;48.122;11.538;2022-08-21T01:57:36;15.70;99.90
47520;DHT22;33252;48.122;11.538;2022-08-21T02:00:06;15.70;99.90
47520;DHT22;33252;48.122;11.538;2022-08-21T02:02:33;15.70;99.90
47520;DHT22;33252;48.122;11.538;2022-08-21T02:04:59;15.60;99.90
47520;DHT22;33252;48.122;11.538;2022-08-21T02:07:25;15.60;99.90
47520;DHT22;33252;48.122;11.538;2022-08-21T02:09:51;15.60;99.90
47520;DHT22;33252;48.122;11.538;2022-08-21T02:12:16;15.60;99.90
47520;DHT22;33252;48.122;11.538;2022-08-21T02:14:42;15.60;99.90
47520;DHT22;33252;48.122;11.538;2022-08-21T02:17:08;15.60;99.90
47520;DHT22;33252;48.122;11.538;2022-08-21T02:19:34;15.60;99.90
47520;DHT22;33252;48.122;11.538;2022-08-21T02:21:59;15.60;99.90
47520;DHT22;33252;48.122;11.538;2022-08-21T02:24:25;15.60;99.90
47520;DHT22;33252;48.122;11.538;2022-08-21T02:26:50;15.50;99.90
47520;DHT22;33252;48.122;11.538;2022-08-21T02:29:16;15.60;99.90
47520;DHT22;33252;48.122;11.538;2022-08-21T02:31:42;15.60;99.90
47520;DHT22;33252;48.122;11.538;2022-08-21T02:34:07;15.60;99.90
47520;DHT22;33252;48.122;11.538;2022-08-21T02:36:34;15.50;99.90
47520;DHT22;33252;48.122;11.538;2022-08-21T02:38:59;15.50;99.90
47520;DHT22;33252;48.122;11.538;2022-08-21T02:41:25;15.50;99.90
47520;DHT22;33252;48.122;11.538;2022-08-21T02:43:51;15.50;99.90
47520;DHT22;33252;48.122;11.538;2022-08-21T02:46:18;15.50;99.90
47520;DHT22;33252;48.122;11.538;2022-08-21T02:48:44;15.40;99.90
47520;DHT22;33252;48.122;11.538;2022-08-21T02:51:15;15.40;99.90
47520;DHT22;33252;48.122;11.538;2022-08-21T02:53:43;15.50;99.90
47520;DHT22;33252;48.122;11.538;2022-08-21T02:56:11;15.50;99.90
47520;DHT22;33252;48.122;11.538;2022-08-21T02:58:42;15.40;99.90
47520;DHT22;33252;48.122;11.538;2022-08-21T03:01:09;15.40;99.90
47520;DHT22;33252;48.122;11.538;2022-08-21T03:03:36;15.50;99.90
47520;DHT22;33252;48.122;11.538;2022-08-21T03:06:02;15.40;99.90
47520;DHT22;33252;48.122;11.538;2022-08-21T03:08:28;15.40;99.90
47520;DHT22;33252;48.122;11.538;2022-08-21T03:10:54;15.40;99.90
47520;DHT22;33252;48.122;11.538;2022-08-21T03:13:20;15.40;99.90
47520;DHT22;33252;48.122;11.538;2022-08-21T03:15:47;15.40;99.90
47520;DHT22;33252;48.122;11.538;2022-08-21T03:18:13;15.40;99.90
47520;DHT22;33252;48.122;11.538;2022-08-21T03:20:40;15.40;99.90
47520;DHT22;33252;48.122;11.538;2022-08-21T03:23:07;15.40;99.90
47520;DHT22;33252;48.122;11.538;2022-08-21T03:25:34;15.30;99.90
47520;DHT22;33252;48.122;11.538;2022-08-21T03:28:02;15.30;99.90
47520;DHT22;33252;48.122;11.538;2022-08-21T03:30:29;15.30;99.90
47520;DHT22;33252;48.122;11.538;2022-08-21T03:33:00;15.30;99.90
47520;DHT22;33252;48.122;11.538;2022-08-21T03:35:27;15.30;99.90
47520;DHT22;33252;48.122;11.538;2022-08-21T03:37:53;15.30;99.90
47520;DHT22;33252;48.122;11.538;2022-08-21T03:40:20;15.30;99.90
47520;DHT22;33252;48.122;11.538;2022-08-21T03:42:47;15.20;99.90
47520;DHT22;33252;48.122;11.538;2022-08-21T03:45:15;15.20;99.90
47520;DHT22;33252;48.122;11.538;2022-08-21T03:48:10;15.20;99.90
47520;DHT22;33252;48.122;11.538;2022-08-21T03:50:40;15.20;99.90
47520;DHT22;33252;48.122;11.538;2022-08-21T03:53:08;15.20;99.90
47520;DHT22;33252;48.122;11.538;2022-08-21T03:55:34;15.20;99.90
47520;DHT22;33252;48.122;11.538;2022-08-21T03:58:00;15.20;99.90
47520;DHT22;33252;48.122;11.538;2022-08-21T04:00:26;15.10;99.90
47520;DHT22;33252;48.122;11.538;2022-08-21T04:02:52;15.10;99.90
47520;DHT22;33252;48.122;11.538;2022-08-21T04:05:19;15.10;99.90
47520;DHT22;33252;48.122;11.538;2022-08-21T04:07:53;15.10;99.90
47520;DHT22;33252;48.122;11.538;2022-08-21T04:10:19;15.00;99.90
47520;DHT22;33252;48.122;11.538;2022-08-21T04:12:45;15.00;99.90
47520;DHT22;33252;48.122;11.538;2022-08-21T04:15:10;15.00;99.90
47520;DHT22;33252;48.122;11.538;2022-08-21T04:17:36;15.10;99.90
47520;DHT22;33252;48.122;11.538;2022-08-21T04:20:02;15.00;99.90
47520;DHT22;33252;48.122;11.538;2022-08-21T04:22:28;15.10;99.90
47520;DHT22;33252;48.122;11.538;2022-08-21T04:24:53;15.00;99.90
47520;DHT22;33252;48.122;11.538;2022-08-21T04:27:19;15.00;99.90
47520;DHT22;33252;48.122;11.538;2022-08-21T04:29:44;14.90;99.90
47520;DHT22;33252;48.122;11.538;2022-08-21T04:32:10;15.00;99.90
47520;DHT22;33252;48.122;11.538;2022-08-21T04:34:36;15.00;99.90
47520;DHT22;33252;48.122;11.538;2022-08-21T04:37:01;14.90;99.90
47520;DHT22;33252;48.122;11.538;2022-08-21T04:39:27;14.90;99.90
47520;DHT22;33252;48.122;11.538;2022-08-21T04:41:53;15.00;99.90
47520;DHT22;33252;48.122;11.538;2022-08-21T04:44:18;15.00;99.90
47520;DHT22;33252;48.122;11.538;2022-08-21T04:46:44;15.00;99.90
47520;DHT22;33252;48.122;11.538;2022-08-21T04:49:10;15.00;99.90
47520;DHT22;33252;48.122;11.538;2022-08-21T04:51:37;14.90;99.90
47520;DHT22;33252;48.122;11.538;2022-08-21T04:54:09;14.90;99.90
47520;DHT22;33252;48.122;11.538;2022-08-21T04:56:47;15.00;99.90
47520;DHT22;33252;48.122;11.538;2022-08-21T04:59:21;14.90;99.90
47520;DHT22;33252;48.122;11.538;2022-08-21T05:01:48;15.00;99.90
47520;DHT22;33252;48.122;11.538;2022-08-21T05:04:16;14.90;99.90
47520;DHT22;33252;48.122;11.538;2022-08-21T05:06:45;14.90;99.90
47520;DHT22;33252;48.122;11.538;2022-08-21T05:09:14;15.10;99.90
47520;DHT22;33252;48.122;11.538;2022-08-21T05:11:40;15.00;99.90
47520;DHT22;33252;48.122;11.538;2022-08-21T05:14:08;15.10;99.90
47520;DHT22;33252;48.122;11.538;2022-08-21T05:16:34;15.10;99.90
47520;DHT22;33252;48.122;11.538;2022-08-21T05:19:01;15.10;99.90
47520;DHT22;33252;48.122;11.538;2022-08-21T05:21:26;15.20;99.90
47520;DHT22;33252;48.122;11.538;2022-08-21T05:23:52;15.20;99.90
47520;DHT22;33252;48.122;11.538;2022-08-21T05:26:18;15.10;99.90
47520;DHT22;33252;48.122;11.538;2022-08-21T05:28:43;15.20;99.90
47520;DHT22;33252;48.122;11.538;2022-08-21T05:31:09;15.30;99.90
47520;DHT22;33252;48.122;11.538;2022-08-21T05:33:35;15.20;99.90
47520;DHT22;33252;48.122;11.538;2022-08-21T05:36:00;15.20;99.90
47520;DHT22;33252;48.122;11.538;2022-08-21T05:38:26;15.20;99.90
47520;DHT22;33252;48.122;11.538;2022-08-21T05:40:54;15.30;99.90
47520;DHT22;33252;48.122;11.538;2022-08-21T05:43:20;15.40;99.90
47520;DHT22;33252;48.122;11.538;2022-08-21T05:45:46;15.40;99.90
47520;DHT22;33252;48.122;11.538;2022-08-21T05:48:18;15.50;99.90
47520;DHT22;33252;48.122;11.538;2022-08-21T05:50:45;15.50;99.90
47520;DHT22;33252;48.122;11.538;2022-08-21T05:53:12;15.50;99.90
47520;DHT22;33252;48.122;11.538;2022-08-21T05:55:41;15.60;99.90
47520;DHT22;33252;48.122;11.538;2022-08-21T05:58:07;15.70;99.90
47520;DHT22;33252;48.122;11.538;2022-08-21T06:00:33;15.70;99.90
47520;DHT22;33252;48.122;11.538;2022-08-21T06:02:59;15.70;99.90
47520;DHT22;33252;48.122;11.538;2022-08-21T06:05:25;15.70;99.90
47520;DHT22;33252;48.122;11.538;2022-08-21T06:07:51;15.90;99.90
47520;DHT22;33252;48.122;11.538;2022-08-21T06:10:18;16.00;99.90
47520;DHT22;33252;48.122;11.538;2022-08-21T06:12:43;16.00;99.90
47520;DHT22;33252;48.122;11.538;2022-08-21T06:15:09;16.10;99.90
47520;DHT22;33252;48.122;11.538;2022-08-21T06:17:35;16.10;99.90
47520;DHT22;33252;48.122;11.538;2022-08-21T06:20:01;16.20;99.90
47520;DHT22;33252;48.122;11.538;2022-08-21T06:22:27;16.30;99.90
47520;DHT22;33252;48.122;11.538;2022-08-21T06:24:54;16.40;99.90
47520;DHT22;33252;48.122;11.538;2022-08-21T06:27:19;16.50;99.90
47520;DHT22;33252;48.122;11.538;2022-08-21T06:29:45;16.50;99.90
47520;DHT22;33252;48.122;11.538;2022-08-21T06:32:11;16.60;99.90
47520;DHT22;33252;48.122;11.538;2022-08-21T06:34:39;16.60;99.90
47520;DHT22;33252;48.122;11.538;2022-08-21T06:37:05;16.70;99.90
47520;DHT22;33252;48.122;11.538;2022-08-21T06:39:32;16.70;99.90
47520;DHT22;33252;48.122;11.538;2022-08-21T06:41:57;16.80;99.90
47520;DHT22;33252;48.122;11.538;2022-08-21T06:44:23;16.80;99.90
47520;DHT22;33252;48.122;11.538;2022-08-21T06:46:49;16.90;99.90
47520;DHT22;33252;48.122;11.538;2022-08-21T06:49:14;16.90;99.90
47520;DHT22;33252;48.122;11.538;2022-08-21T06:51:40;17.00;99.90
47520;DHT22;33252;48.122;11.538;2022-08-21T06:54:06;17.00;99.90
47520;DHT22;33252;48.122;11.538;2022-08-21T06:56:32;17.10;99.90
47520;DHT22;33252;48.122;11.538;2022-08-21T06:59:00;17.10;99.90
47520;DHT22;33252;48.122;11.538;2022-08-21T07:01:26;17.10;99.90
47520;DHT22;33252;48.122;11.538;2022-08-21T07:03:52;17.20;99.90
47520;DHT22;33252;48.122;11.538;2022-08-21T07:06:18;17.30;99.90
47520;DHT22;33252;48.122;11.538;2022-08-21T07:08:44;17.40;99.90
47520;DHT22;33252;48.122;11.538;2022-08-21T07:11:18;17.40;99.90
47520;DHT22;33252;48.122;11.538;2022-08-21T07:13:44;17.40;99.90
47520;DHT22;33252;48.122;11.538;2022-08-21T07:16:10;17.50;99.90
47520;DHT22;33252;48.122;11.538;2022-08-21T07:18:36;17.50;99.90
47520;DHT22;33252;48.122;11.538;2022-08-21T07:21:03;17.60;99.90
47520;DHT22;33252;48.122;11.538;2022-08-21T07:23:32;17.60;99.90
47520;DHT22;33252;48.122;11.538;2022-08-21T07:25:59;17.70;99.90
47520;DHT22;33252;48.122;11.538;2022-08-21T07:28:26;17.80;99.90
47520;DHT22;33252;48.122;11.538;2022-08-21T07:30:54;17.80;99.90
47520;DHT22;33252;48.122;11.538;2022-08-21T07:33:21;17.90;99.90
47520;DHT22;33252;48.122;11.538;2022-08-21T07:35:47;17.90;99.90
47520;DHT22;33252;48.122;11.538;2022-08-21T07:38:13;17.90;99.90
47520;DHT22;33252;48.122;11.538;2022-08-21T07:40:38;18.00;99.90
47520;DHT22;33252;48.122;11.538;2022-08-21T07:43:04;18.00;99.90
47520;DHT22;33252;48.122;11.538;2022-08-21T07:45:30;18.00;99.90
47520;DHT22;33252;48.122;11.538;2022-08-21T07:47:56;18.20;99.90
47520;DHT22;33252;48.122;11.538;2022-08-21T07:50:22;18.20;99.90
47520;DHT22;33252;48.122;11.538;2022-08-21T07:52:48;18.20;99.90
47520;DHT22;33252;48.122;11.538;2022-08-21T07:55:16;18.20;99.90
47520;DHT22;33252;48.122;11.538;2022-08-21T07:57:43;18.30;99.90
47520;DHT22;33252;48.122;11.538;2022-08-21T08:00:13;18.30;99.90
47520;DHT22;33252;48.122;11.538;2022-08-21T08:02:40;18.30;99.90
47520;DHT22;33252;48.122;11.538;2022-08-21T08:05:09;18.40;99.90
47520;DHT22;33252;48.122;11.538;2022-08-21T08:07:36;18.50;99.90
47520;DHT22;33252;48.122;11.538;2022-08-21T08:10:04;18.50;99.90
47520;DHT22;33252;48.122;11.538;2022-08-21T08:12:33;18.50;99.90
47520;DHT22;33252;48.122;11.538;2022-08-21T08:15:00;18.60;99.90
47520;DHT22;33252;48.122;11.538;2022-08-21T08:17:26;18.70;99.90
47520;DHT22;33252;48.122;11.538;2022-08-21T08:19:53;18.80;99.90
47520;DHT22;33252;48.122;11.538;2022-08-21T08:22:20;18.80;99.90
47520;DHT22;33252;48.122;11.538;2022-08-21T08:24:50;18.80;99.90
47520;DHT22;33252;48.122;11.538;2022-08-21T08:27:16;19.00;99.90
47520;DHT22;33252;48.122;11.538;2022-08-21T08:29:42;19.20;99.90
47520;DHT22;33252;48.122;11.538;2022-08-21T08:32:08;19.10;99.90
47520;DHT22;33252;48.122;11.538;2022-08-21T08:34:35;19.30;99.90
47520;DHT22;33252;48.122;11.538;2022-08-21T08:37:01;19.20;99.90
47520;DHT22;33252;48.122;11.538;2022-08-21T08:39:27;19.20;99.90
47520;DHT22;33252;48.122;11.538;2022-08-21T08:42:11;19.10;99.90
47520;DHT22;33252;48.122;11.538;2022-08-21T08:44:43;19.20;99.90
47520;DHT22;33252;48.122;11.538;2022-08-21T08:47:11;19.40;99.90
47520;DHT22;33252;48.122;11.538;2022-08-21T08:49:58;19.40;99.90
47520;DHT22;33252;48.122;11.538;2022-08-21T08:52:40;19.60;99.90
47520;DHT22;33252;48.122;11.538;2022-08-21T08:55:13;19.60;99.90
47520;DHT22;33252;48.122;11.538;2022-08-21T08:57:44;19.70;99.90
47520;DHT22;33252;48.122;11.538;2022-08-21T09:00:12;19.60;99.90
47520;DHT22;33252;48.122;11.538;2022-08-21T09:02:41;19.70;99.90
47520;DHT22;33252;48.122;11.538;2022-08-21T09:05:08;19.70;99.90
47520;DHT22;33252;48.122;11.538;2022-08-21T09:07:47;19.90;99.90
47520;DHT22;33252;48.122;11.538;2022-08-21T09:10:21;19.80;99.90
47520;DHT22;33252;48.122;11.538;2022-08-21T09:18:54;20.10;99.90
47520;DHT22;33252;48.122;11.538;2022-08-21T09:21:49;19.90;99.90
47520;DHT22;33252;48.122;11.538;2022-08-21T09:27:04;20.00;99.90
47520;DHT22;33252;48.122;11.538;2022-08-21T09:29:36;20.20;99.90
47520;DHT22;33252;48.122;11.538;2022-08-21T09:32:16;20.30;99.90
47520;DHT22;33252;48.122;11.538;2022-08-21T09:35:00;20.30;99.90
47520;DHT22;33252;48.122;11.538;2022-08-21T09:37:28;20.20;99.90
47520;DHT22;33252;48.122;11.538;2022-08-21T09:39:56;20.30;99.90
47520;DHT22;33252;48.122;11.538;2022-08-21T09:42:32;20.40;99.90
47520;DHT22;33252;48.122;11.538;2022-08-21T09:45:11;20.50;99.90
47520;DHT22;33252;48.122;11.538;2022-08-21T09:47:37;20.70;99.90
47520;DHT22;33252;48.122;11.538;2022-08-21T09:50:14;20.80;99.90
47520;DHT22;33252;48.122;11.538;2022-08-21T09:52:49;21.00;99.90
47520;DHT22;33252;48.122;11.538;2022-08-21T09:56:16;20.90;99.90
47520;DHT22;33252;48.122;11.538;2022-08-21T09:58:32;20.90;99.90
47520;DHT22;33252;48.122;11.538;2022-08-21T10:01:01;20.80;99.90
47520;DHT22;33252;48.122;11.538;2022-08-21T10:03:28;20.80;99.90
47520;DHT22;33252;48.122;11.538;2022-08-21T10:06:00;20.80;99.90
47520;DHT22;33252;48.122;11.538;2022-08-21T10:08:31;20.90;99.90
47520;DHT22;33252;48.122;11.538;2022-08-21T10:11:10;20.90;99.90
47520;DHT22;33252;48.122;11.538;2022-08-21T10:19:35;21.40;99.90
47520;DHT22;33252;48.122;11.538;2022-08-21T10:30:29;21.90;99.90
47520;DHT22;33252;48.122;11.538;2022-08-21T10:36:20;22.20;99.90
47520;DHT22;33252;48.122;11.538;2022-08-21T10:38:52;21.70;99.90
47520;DHT22;33252;48.122;11.538;2022-08-21T10:44:13;21.30;99.90
47520;DHT22;33252;48.122;11.538;2022-08-21T10:47:06;21.30;99.90
47520;DHT22;33252;48.122;11.538;2022-08-21T10:55:19;21.60;99.90
47520;DHT22;33252;48.122;11.538;2022-08-21T10:57:50;21.80;99.90
47520;DHT22;33252;48.122;11.538;2022-08-21T11:00:22;21.70;99.90
47520;DHT22;33252;48.122;11.538;2022-08-21T11:03:05;21.50;99.90
47520;DHT22;33252;48.122;11.538;2022-08-21T11:05:42;21.40;99.90
47520;DHT22;33252;48.122;11.538;2022-08-21T11:08:17;21.20;99.90
47520;DHT22;33252;48.122;11.538;2022-08-21T11:10:47;21.10;99.90
47520;DHT22;33252;48.122;11.538;2022-08-21T11:13:25;21.00;99.90
47520;DHT22;33252;48.122;11.538;2022-08-21T11:18:57;21.20;99.90
47520;DHT22;33252;48.122;11.538;2022-08-21T11:21:42;21.50;99.90
47520;DHT22;33252;48.122;11.538;2022-08-21T11:24:44;21.60;99.90
47520;DHT22;33252;48.122;11.538;2022-08-21T11:29:39;21.40;99.90
47520;DHT22;33252;48.122;11.538;2022-08-21T11:43:05;22.80;99.90
47520;DHT22;33252;48.122;11.538;2022-08-21T11:45:48;23.00;99.90
47520;DHT22;33252;48.122;11.538;2022-08-21T11:51:00;22.80;99.90
47520;DHT22;33252;48.122;11.538;2022-08-21T11:53:38;22.50;99.90
47520;DHT22;33252;48.122;11.538;2022-08-21T11:56:22;22.30;99.90
47520;DHT22;33252;48.122;11.538;2022-08-21T11:58:52;21.90;99.90
47520;DHT22;33252;48.122;11.538;2022-08-21T12:01:32;21.90;99.90
47520;DHT22;33252;48.122;11.538;2022-08-21T12:04:06;21.70;99.90
47520;DHT22;33252;48.122;11.538;2022-08-21T12:06:36;21.70;98.90
47520;DHT22;33252;48.122;11.538;2022-08-21T12:09:07;21.70;96.90
47520;DHT22;33252;48.122;11.538;2022-08-21T12:11:47;21.90;96.50
47520;DHT22;33252;48.122;11.538;2022-08-21T12:14:17;22.20;98.30
47520;DHT22;33252;48.122;11.538;2022-08-21T12:16:45;22.50;95.90
47520;DHT22;33252;48.122;11.538;2022-08-21T12:21:59;23.10;96.00
47520;DHT22;33252;48.122;11.538;2022-08-21T12:24:45;23.30;98.50
47520;DHT22;33252;48.122;11.538;2022-08-21T12:27:29;23.20;99.70
47520;DHT22;33252;48.122;11.538;2022-08-21T12:30:17;22.90;99.80
47520;DHT22;33252;48.122;11.538;2022-08-21T12:32:53;22.60;99.00
47520;DHT22;33252;48.122;11.538;2022-08-21T12:35:25;22.40;98.20
47520;DHT22;33252;48.122;11.538;2022-08-21T12:38:32;22.50;98.10
47520;DHT22;33252;48.122;11.538;2022-08-21T12:41:10;22.40;96.80
47520;DHT22;33252;48.122;11.538;2022-08-21T12:43:42;22.30;96.70
47520;DHT22;33252;48.122;11.538;2022-08-21T12:46:21;22.50;97.90
47520;DHT22;33252;48.122;11.538;2022-08-21T12:48:49;23.00;97.10
47520;DHT22;33252;48.122;11.538;2022-08-21T12:51:28;23.30;96.20
47520;DHT22;33252;48.122;11.538;2022-08-21T12:53:59;23.90;95.40
47520;DHT22;33252;48.122;11.538;2022-08-21T12:56:27;24.20;97.20
47520;DHT22;33252;48.122;11.538;2022-08-21T12:59:16;24.30;93.80
47520;DHT22;33252;48.122;11.538;2022-08-21T13:01:47;24.60;95.20
47520;DHT22;33252;48.122;11.538;2022-08-21T13:04:18;25.10;92.60
47520;DHT22;33252;48.122;11.538;2022-08-21T13:06:48;25.20;89.90
47520;DHT22;33252;48.122;11.538;2022-08-21T13:09:18;25.20;90.90
47520;DHT22;33252;48.122;11.538;2022-08-21T13:11:47;25.90;91.20
47520;DHT22;33252;48.122;11.538;2022-08-21T13:14:38;25.70;94.10
47520;DHT22;33252;48.122;11.538;2022-08-21T13:17:06;25.20;93.60
47520;DHT22;33252;48.122;11.538;2022-08-21T13:19:33;24.80;93.50
47520;DHT22;33252;48.122;11.538;2022-08-21T13:22:00;25.40;92.20
47520;DHT22;33252;48.122;11.538;2022-08-21T13:24:29;26.10;92.00
47520;DHT22;33252;48.122;11.538;2022-08-21T13:26:56;28.30;90.50
47520;DHT22;33252;48.122;11.538;2022-08-21T13:29:28;28.80;85.10
47520;DHT22;33252;48.122;11.538;2022-08-21T13:32:04;29.80;82.10
47520;DHT22;33252;48.122;11.538;2022-08-21T13:34:35;29.80;80.30
47520;DHT22;33252;48.122;11.538;2022-08-21T13:37:04;31.10;83.10
47520;DHT22;33252;48.122;11.538;2022-08-21T13:39:31;31.20;78.60
47520;DHT22;33252;48.122;11.538;2022-08-21T13:42:00;31.10;76.70
47520;DHT22;33252;48.122;11.538;2022-08-21T13:44:44;28.40;79.90
47520;DHT22;33252;48.122;11.538;2022-08-21T13:47:12;26.70;83.40
47520;DHT22;33252;48.122;11.538;2022-08-21T13:49:50;25.70;85.60
47520;DHT22;33252;48.122;11.538;2022-08-21T13:52:23;25.10;88.50
47520;DHT22;33252;48.122;11.538;2022-08-21T13:55:06;24.90;88.90
47520;DHT22;33252;48.122;11.538;2022-08-21T13:57:34;25.80;88.30
47520;DHT22;33252;48.122;11.538;2022-08-21T14:00:30;27.20;85.60
47520;DHT22;33252;48.122;11.538;2022-08-21T14:03:03;30.70;79.70
47520;DHT22;33252;48.122;11.538;2022-08-21T14:05:32;32.20;75.00
47520;DHT22;33252;48.122;11.538;2022-08-21T14:08:07;32.70;74.60
47520;DHT22;33252;48.122;11.538;2022-08-21T14:10:46;33.00;72.30
47520;DHT22;33252;48.122;11.538;2022-08-21T14:16:01;29.00;79.80
47520;DHT22;33252;48.122;11.538;2022-08-21T14:18:28;27.80;84.00
47520;DHT22;33252;48.122;11.538;2022-08-21T14:21:05;26.80;84.30
47520;DHT22;33252;48.122;11.538;2022-08-21T14:23:31;26.30;84.30
47520;DHT22;33252;48.122;11.538;2022-08-21T14:26:03;25.50;89.30
47520;DHT22;33252;48.122;11.538;2022-08-21T14:28:37;28.50;83.70
47520;DHT22;33252;48.122;11.538;2022-08-21T14:31:18;30.90;78.90
47520;DHT22;33252;48.122;11.538;2022-08-21T14:33:44;32.30;71.00
47520;DHT22;33252;48.122;11.538;2022-08-21T14:36:10;32.60;70.80
47520;DHT22;33252;48.122;11.538;2022-08-21T14:38:38;32.60;70.00
47520;DHT22;33252;48.122;11.538;2022-08-21T14:41:23;32.60;68.30
47520;DHT22;33252;48.122;11.538;2022-08-21T14:43:50;29.60;73.40
47520;DHT22;33252;48.122;11.538;2022-08-21T14:46:25;27.90;77.80
47520;DHT22;33252;48.122;11.538;2022-08-21T14:48:52;28.80;80.50
47520;DHT22;33252;48.122;11.538;2022-08-21T14:51:18;31.50;74.60
47520;DHT22;33252;48.122;11.538;2022-08-21T14:53:43;32.80;71.00
47520;DHT22;33252;48.122;11.538;2022-08-21T14:56:10;33.40;70.80
47520;DHT22;33252;48.122;11.538;2022-08-21T14:58:42;33.00;68.30
47520;DHT22;33252;48.122;11.538;2022-08-21T15:01:08;33.00;66.90
47520;DHT22;33252;48.122;11.538;2022-08-21T15:03:35;32.20;66.80
47520;DHT22;33252;48.122;11.538;2022-08-21T15:06:01;33.00;67.30
47520;DHT22;33252;48.122;11.538;2022-08-21T15:08:27;33.20;68.80
47520;DHT22;33252;48.122;11.538;2022-08-21T15:10:53;33.40;64.20
47520;DHT22;33252;48.122;11.538;2022-08-21T15:13:20;33.40;65.20
47520;DHT22;33252;48.122;11.538;2022-08-21T15:15:47;33.20;64.50
47520;DHT22;33252;48.122;11.538;2022-08-21T15:18:13;32.80;64.20
47520;DHT22;33252;48.122;11.538;2022-08-21T15:20:39;32.00;64.80
47520;DHT22;33252;48.122;11.538;2022-08-21T15:23:06;32.10;65.20
47520;DHT22;33252;48.122;11.538;2022-08-21T15:25:33;33.20;65.90
47520;DHT22;33252;48.122;11.538;2022-08-21T15:27:59;33.60;65.30
47520;DHT22;33252;48.122;11.538;2022-08-21T15:30:27;32.90;64.30
47520;DHT22;33252;48.122;11.538;2022-08-21T15:32:53;32.70;64.10
47520;DHT22;33252;48.122;11.538;2022-08-21T15:35:19;31.40;63.80
47520;DHT22;33252;48.122;11.538;2022-08-21T15:37:45;30.60;65.70
47520;DHT22;33252;48.122;11.538;2022-08-21T15:40:11;30.40;66.10
47520;DHT22;33252;48.122;11.538;2022-08-21T15:42:40;30.10;65.90
47520;DHT22;33252;48.122;11.538;2022-08-21T15:45:06;30.00;68.20
47520;DHT22;33252;48.122;11.538;2022-08-21T15:47:35;29.50;67.00
47520;DHT22;33252;48.122;11.538;2022-08-21T15:50:02;29.20;67.80
47520;DHT22;33252;48.122;11.538;2022-08-21T15:52:28;28.60;67.30
47520;DHT22;33252;48.122;11.538;2022-08-21T15:54:54;28.50;68.60
47520;DHT22;33252;48.122;11.538;2022-08-21T15:57:22;28.80;69.20
47520;DHT22;33252;48.122;11.538;2022-08-21T15:59:54;28.80;68.20
47520;DHT22;33252;48.122;11.538;2022-08-21T16:02:27;29.10;68.30
47520;DHT22;33252;48.122;11.538;2022-08-21T16:04:53;28.80;69.60
47520;DHT22;33252;48.122;11.538;2022-08-21T16:07:19;28.60;69.10
47520;DHT22;33252;48.122;11.538;2022-08-21T16:09:44;28.40;68.30
47520;DHT22;33252;48.122;11.538;2022-08-21T16:12:21;28.30;66.60
47520;DHT22;33252;48.122;11.538;2022-08-21T16:14:47;28.20;67.50
47520;DHT22;33252;48.122;11.538;2022-08-21T16:17:15;28.40;67.00
47520;DHT22;33252;48.122;11.538;2022-08-21T16:19:41;28.10;70.00
47520;DHT22;33252;48.122;11.538;2022-08-21T16:22:07;27.90;69.00
47520;DHT22;33252;48.122;11.538;2022-08-21T16:24:32;27.90;67.90
47520;DHT22;33252;48.122;11.538;2022-08-21T16:26:58;27.90;67.40
47520;DHT22;33252;48.122;11.538;2022-08-21T16:29:33;28.00;69.30
47520;DHT22;33252;48.122;11.538;2022-08-21T16:32:00;28.10;69.20